Teton, Idaho
Current Conditions -  °F | °C
As of 9:53 PM on Saturday 20 Dec 2014 (Local Time) from KRXE Reporting Station
Light Snow Light Snow  
Wind Chill: 25°   Ceiling: 700
Heat Index: 34°   Visibility: 6mi
Dew Point: 33°   Wind: 12mph
Humidity: 96%   Direction: 200°SSW
Pressure: 29.91"   Gusts: NA
Location:  43.89°N, 111.68°W
Report Text: KRXE 210453Z AUTO 20010KT 6SM -SN BR OVC007 01/01 A2991 RMK AO2 RAE40SNB40 SLP148 P0002 T00110006
Loading
Personal Weather Stations






























Interactive Weather Map New forecast layout! Learn more

10-Day Weather Forecast

Advertisements
Track Severe Weather on mobile